Flight Track Log - Related Links

Times and Time Zones

All times are in EDT time to prevent confusion due to time zone crossing. See the UAL4380 flight status page for this flight to view local times or setup timezone preferences in your user account.

Time Position Orientation Groundspeed Altitude Reporting Facility
EDT Latitude Longitude Course Direction KTS MPH feet Rate Location/Type
Sat 05:53:49 AM 35.2303 -80.9242 72° East 158 182 1,500  Level Atlanta Center
Sat 05:55:53 AM 35.2983 -80.8172 52° Northeast 223 257 5,300 1,793 Climbing Atlanta Center
Sat 05:56:53 AM 35.2939 -80.7231 93° East 237 273 7,000 1,850 Climbing Atlanta Center
Sat 05:57:00 AM 35.2362 -80.5409 30° Northeast  Level FlightAware Approximate
Sat 05:57:53 AM 35.3014 -80.6186 85° East 285 328 9,000  Level Atlanta Center
Sat 05:58:00 AM 35.3280 -80.4667 North  Level FlightAware Approximate
Sat 05:58:53 AM 35.3253 -80.5081 75° East 320 368 10,400  Level Atlanta Center
Sat 05:59:00 AM 35.3681 -80.3352 72° East  Level FlightAware Approximate
Sat 05:59:53 AM 35.3614 -80.3869 70° East 362 417 11,100  Level Atlanta Center
Sat 06:00:53 AM 35.4011 -80.2500 70° East 404 465 12,200 1,169 Climbing Atlanta Center
Sat 06:02:27 AM 35.4647 -80.0242 71° East 416 479 14,100 1,130 Climbing Washington Center
Sat 06:03:27 AM 35.5033 -79.8811 72° East 428 493 15,100 950 Climbing Washington Center
Sat 06:04:27 AM 35.5375 -79.7372 74° East 438 504 16,000 800 Climbing Washington Center
Sat 06:05:27 AM 35.5714 -79.6036 73° East 438 504 16,700 750 Climbing Washington Center
Sat 06:06:27 AM 35.6164 -79.4372 72° East 454 522 17,500 650 Climbing Washington Center
Sat 06:07:27 AM 35.6600 -79.3167 66° East 462 532 18,000 600 Climbing Washington Center
Sat 06:08:27 AM 35.7436 -79.1747 54° Northeast 467 537 18,700 700 Climbing Washington Center
Sat 06:09:27 AM 35.8608 -79.0931 29° Northeast 460 529 19,400 700 Climbing Washington Center
Sat 06:10:27 AM 35.9800 -79.0058 31° Northeast 477 549 20,100 700 Climbing Washington Center
Sat 06:11:27 AM 36.0972 -78.9183 31° Northeast 483 556 20,800 750 Climbing Washington Center
Sat 06:12:27 AM 36.2189 -78.8283 31° Northeast 494 568 21,600 750 Climbing Washington Center
Sat 06:13:27 AM 36.3422 -78.7353 31° Northeast 505 581 22,300 700 Climbing Washington Center
Sat 06:14:27 AM 36.4656 -78.6447 31° Northeast 505 581 23,000 700 Climbing Washington Center
Sat 06:15:27 AM 36.5889 -78.5486 32° Northeast 511 588 23,700 700 Climbing Washington Center
Sat 06:16:27 AM 36.7272 -78.4478 30° Northeast 511 588 24,400 700 Climbing Washington Center
Sat 06:17:27 AM 36.8397 -78.3583 32° Northeast 529 609 25,100 700 Climbing Washington Center
Sat 06:18:27 AM 36.9692 -78.2617 31° Northeast 529 609 25,800 700 Climbing Washington Center
Sat 06:19:27 AM 37.0964 -78.1644 31° Northeast 529 609 26,500 850 Climbing Washington Center
Sat 06:20:27 AM 37.2217 -78.0697 31° Northeast 529 609 27,500 1,000 Climbing Washington Center
Sat 06:21:27 AM 37.3467 -77.9692 33° Northeast 529 609 28,500 1,000 Climbing Washington Center
Sat 06:22:27 AM 37.4694 -77.8736 32° Northeast 529 609 29,500 1,000 Climbing Washington Center
Sat 06:23:27 AM 37.5925 -77.7725 33° Northeast 529 609 30,500 750 Climbing Washington Center
Sat 06:24:27 AM 37.7092 -77.6628 37° Northeast 524 603 31,000 250 Climbing Washington Center
Sat 06:25:27 AM 37.8339 -77.5506 35° Northeast 530 610 31,000  Level Washington Center
Sat 06:26:27 AM 37.9608 -77.4353 36° Northeast 540 621 31,000  Level Washington Center
Sat 06:27:27 AM 38.0983 -77.3122 35° Northeast 545 627 31,000  Level Washington Center
Sat 06:28:27 AM 38.2231 -77.1961 36° Northeast 550 633 31,000  Level Washington Center
Sat 06:29:27 AM 38.3497 -77.0797 36° Northeast 562 647 31,000  Level Washington Center
Sat 06:30:27 AM 38.4739 -76.9628 36° Northeast 556 640 31,000  Level Washington Center
Sat 06:31:27 AM 38.6025 -76.8456 35° Northeast 556 640 31,000  Level Washington Center
Sat 06:32:27 AM 38.7267 -76.7225 38° Northeast 556 640 31,000  Level Washington Center
Sat 06:33:27 AM 38.8403 -76.5911 42° Northeast 551 634 31,000  Level Washington Center
Sat 06:34:27 AM 38.9539 -76.4564 43° Northeast 551 634 31,000  Level Washington Center
Sat 06:35:27 AM 39.0611 -76.3319 42° Northeast 561 646 31,000 -1,100 Level Washington Center
Sat 06:36:27 AM 39.1767 -76.1967 42° Northeast 561 646 28,800 -2,000 Descending Washington Center
Sat 06:37:27 AM 39.2958 -76.0636 41° Northeast 566 651 27,000 -900 Descending Washington Center
Sat 06:38:27 AM 39.4131 -75.9272 42° Northeast 566 651 27,000 -150 Level Washington Center
Sat 06:39:27 AM 39.5281 -75.7906 42° Northeast 561 646 26,700 -1,650 Descending Washington Center
Sat 06:40:27 AM 39.6469 -75.6508 42° Northeast 566 651 23,700 -2,950 Descending Washington Center
Sat 06:41:27 AM 39.7594 -75.5106 44° Northeast 572 658 20,800 -2,950 Descending Washington Center
Sat 06:42:27 AM 39.8633 -75.3886 42° Northeast 538 619 17,800 -2,850 Descending Washington Center
Sat 06:43:27 AM 39.9631 -75.2694 42° Northeast 500 575 15,100 -2,600 Descending Washington Center
Sat 06:44:27 AM 40.0689 -75.1386 43° Northeast 479 551 12,600 -2,211 Descending Washington Center
Sat 06:45:21 AM 40.1500 -75.0333 45° Northeast 432 497 10,900 -1,579 Descending New York TRACON
Sat 06:46:21 AM 40.2167 -74.9500 44° Northeast 358 412 9,600 -1,333 Descending New York TRACON
Sat 06:47:27 AM 40.3000 -74.8500 42° Northeast 331 381 8,100 -1,000 Descending New York TRACON
Sat 06:48:27 AM 40.3500 -74.7667 52° Northeast 330 380 7,500 -810 Descending New York TRACON
Sat 06:49:33 AM 40.4167 -74.6833 44° Northeast 314 361 6,400 -700 Descending New York TRACON
Sat 06:50:27 AM 40.5000 -74.6500 17° North 280 322 6,100 -222 Descending New York TRACON
Sat 06:51:21 AM 40.5667 -74.6333 11° North 276 318 6,000 -53 Descending New York TRACON
Sat 06:52:21 AM 40.6333 -74.6167 11° North 278 320 6,000  Level New York TRACON
Sat 06:53:21 AM 40.7167 -74.5833 17° North 267 307 6,000 -211 Level New York TRACON
Sat 06:54:15 AM 40.7667 -74.5333 37° Northeast 281 323 5,600 -474 Descending New York TRACON
Sat 06:55:15 AM 40.8333 -74.4833 30° Northeast 256 295 5,100 -238 Descending New York TRACON
Sat 06:56:21 AM 40.9000 -74.4167 37° Northeast 258 297 5,100  Level New York TRACON
Sat 06:57:21 AM 40.9500 -74.3500 45° Northeast 279 321 5,100 -250 Level New York TRACON
Sat 06:58:21 AM 40.9500 -74.2500 90° East 288 331 4,600 -550 Descending New York TRACON
Sat 06:59:21 AM 40.9333 -74.1667 105° East 260 299 4,000 -368 Descending New York TRACON
Sat 07:00:15 AM 40.9000 -74.1000 123° Southeast 235 270 3,900 -368 Descending New York TRACON
Sat 07:01:15 AM 40.8500 -74.0667 153° Southeast 211 243 3,300 -600 Descending New York TRACON

Login

Don't have an account? Register now (free) for customized features, flight alerts, and more!